Time;durP1;ratioP1;P1;durP2;ratioP2;P2;SDS_P1;SDS_P2;PMS_P1;PMS_P2;Temp;Humidity;BMP_temperature;BMP_pressure;BME280_temperature;BME280_humidity;BME280_pressure;Samples;Min_cycle;Max_cycle;Signal;HPM_P1;HPM_P2
2022/12/21 00:04:01;;;;;;;62.53;31.70;;;3.40;99.90;;;;;;10350884;28;20236;-83
2022/12/21 00:09:06;;;;;;;57.37;30.77;;;3.30;99.90;;;;;;10368389;28;20298;-83
2022/12/21 00:14:09;;;;;;;45.90;27.87;;;3.10;99.90;;;;;;10366661;28;20248;-83
2022/12/21 00:19:14;;;;;;;38.37;23.27;;;3.20;99.90;;;;;;10368365;28;20259;-83
2022/12/21 00:24:17;;;;;;;56.03;31.33;;;3.30;99.90;;;;;;10354203;28;20773;-83
2022/12/21 00:29:20;;;;;;;52.47;28.43;;;3.30;99.90;;;;;;10341332;28;20299;-83
2022/12/21 00:34:23;;;;;;;55.53;32.20;;;3.30;99.90;;;;;;10348458;28;20602;-83
2022/12/21 00:39:26;;;;;;;58.87;33.13;;;3.20;99.90;;;;;;10368226;28;20640;-83
2022/12/21 00:44:29;;;;;;;47.90;29.03;;;3.20;99.90;;;;;;10368249;28;20746;-83
2022/12/21 00:49:31;;;;;;;55.20;32.20;;;3.20;99.90;;;;;;10332203;28;20290;-84
2022/12/21 00:54:34;;;;;;;50.50;29.13;;;3.30;99.90;;;;;;10350596;28;20269;-84
2022/12/21 00:59:36;;;;;;;60.23;31.63;;;3.30;99.90;;;;;;10349699;28;20298;-84
2022/12/21 01:04:39;;;;;;;46.67;26.77;;;3.30;99.90;;;;;;10334211;28;20736;-84
2022/12/21 01:09:42;;;;;;;47.13;27.53;;;3.30;99.90;;;;;;10370202;28;20216;-84
2022/12/21 01:14:45;;;;;;;47.27;26.17;;;3.30;99.90;;;;;;10350900;28;20295;-84
2022/12/21 01:19:51;;;;;;;50.03;27.37;;;3.40;99.90;;;;;;10357102;28;20271;-84
2022/12/21 01:24:53;;;;;;;52.30;29.13;;;3.30;99.90;;;;;;10357825;28;20282;-84
2022/12/21 01:29:56;;;;;;;43.97;25.93;;;3.30;99.90;;;;;;10357884;28;20232;-83
2022/12/21 01:34:59;;;;;;;50.27;28.50;;;3.20;99.90;;;;;;10356441;28;20240;-83
2022/12/21 01:40:01;;;;;;;47.83;29.07;;;3.10;99.90;;;;;;10356210;28;20318;-84
2022/12/21 01:45:26;;;;;;;47.83;27.70;;;3.00;99.90;;;;;;10375001;28;20220;-84
2022/12/21 01:50:56;;;;;;;45.03;25.40;;;2.90;99.90;;;;;;10373574;28;20228;-84
2022/12/21 01:56:02;;;;;;;41.07;23.73;;;2.90;99.90;;;;;;10359394;28;20236;-84
2022/12/21 02:01:06;;;;;;;44.07;24.80;;;2.90;99.90;;;;;;10354666;28;20318;-84
2022/12/21 02:06:32;;;;;;;48.93;25.07;;;2.90;99.90;;;;;;10340031;28;20200;-84
2022/12/21 02:11:34;;;;;;;50.77;24.70;;;2.80;99.90;;;;;;10354851;28;20201;-84
2022/12/21 02:17:14;;;;;;;42.17;24.20;;;2.80;99.90;;;;;;10372582;28;20247;-84
2022/12/21 02:22:24;;;;;;;42.93;24.33;;;2.90;99.90;;;;;;10350309;28;20657;-84
2022/12/21 02:27:29;;;;;;;39.07;23.30;;;3.00;99.90;;;;;;10373063;28;20205;-84
2022/12/21 02:33:10;;;;;;;41.57;22.93;;;3.00;99.90;;;;;;10355036;28;20661;-84
2022/12/21 02:38:25;;;;;;;42.53;24.40;;;3.00;99.90;;;;;;10354166;28;20216;-83
2022/12/21 02:49:15;;;;;;;36.60;21.57;;;3.00;99.90;;;;;;10353601;28;20285;-84
2022/12/21 02:54:19;;;;;;;41.47;23.80;;;2.90;99.90;;;;;;10353178;28;20258;-83
2022/12/21 02:59:28;;;;;;;37.27;22.53;;;2.90;99.90;;;;;;10344505;28;20275;-84
2022/12/21 03:04:56;;;;;;;38.80;22.93;;;2.90;99.90;;;;;;10337771;28;20277;-84
2022/12/21 03:10:34;;;;;;;38.47;23.47;;;2.80;99.90;;;;;;10351626;28;20245;-84
2022/12/21 03:15:58;;;;;;;36.67;20.80;;;2.80;99.90;;;;;;10356446;28;20227;-84
2022/12/21 03:21:14;;;;;;;38.27;20.80;;;3.00;99.90;;;;;;10353299;28;20726;-84
2022/12/21 03:26:27;;;;;;;41.60;23.37;;;2.90;99.90;;;;;;10353870;28;20769;-84
2022/12/21 03:31:36;;;;;;;41.70;22.40;;;2.90;99.90;;;;;;10352816;28;20270;-83
2022/12/21 03:36:46;;;;;;;35.33;20.20;;;2.90;99.90;;;;;;10370570;28;20696;-84
2022/12/21 03:42:08;;;;;;;34.03;20.57;;;2.90;99.90;;;;;;10369913;28;20274;-84
2022/12/21 03:47:19;;;;;;;37.13;21.40;;;2.90;99.90;;;;;;10369810;28;20254;-84
2022/12/21 03:52:28;;;;;;;34.57;20.97;;;2.90;99.90;;;;;;10350909;28;21107;-84
2022/12/21 03:57:32;;;;;;;38.60;21.10;;;2.90;99.90;;;;;;10344887;28;20627;-84
2022/12/21 04:02:58;;;;;;;36.83;21.23;;;2.90;99.90;;;;;;10352206;28;20243;-84
2022/12/21 04:08:01;;;;;;;36.03;20.20;;;2.90;99.90;;;;;;10351159;28;20204;-84
2022/12/21 04:13:04;;;;;;;38.77;22.03;;;2.90;99.90;;;;;;10351939;28;20235;-84
2022/12/21 04:18:07;;;;;;;39.47;22.67;;;2.90;99.90;;;;;;10369355;28;20674;-84
2022/12/21 04:28:31;;;;;;;38.00;21.53;;;3.10;99.90;;;;;;10351324;28;20205;-84
2022/12/21 04:33:52;;;;;;;32.40;19.53;;;3.20;99.90;;;;;;10369375;28;20286;-84
2022/12/21 04:38:55;;;;;;;31.87;18.23;;;3.20;99.90;;;;;;10369935;28;20263;-84
2022/12/21 04:43:57;;;;;;;35.80;19.87;;;3.20;99.90;;;;;;10338134;28;20233;-84
2022/12/21 04:49:00;;;;;;;37.80;19.97;;;3.30;99.90;;;;;;10378777;28;20608;-84
2022/12/21 04:54:04;;;;;;;40.50;20.03;;;3.30;99.90;;;;;;10378281;28;20576;-84
2022/12/21 04:59:06;;;;;;;32.03;18.97;;;3.30;99.90;;;;;;10360532;28;20661;-83
2022/12/21 05:04:10;;;;;;;37.83;20.90;;;3.20;99.90;;;;;;10380854;28;20228;-84
2022/12/21 05:09:13;;;;;;;37.40;19.70;;;3.20;99.90;;;;;;10368440;28;20201;-84
2022/12/21 05:14:16;;;;;;;34.90;20.10;;;3.30;99.90;;;;;;10383955;28;20204;-84
2022/12/21 05:19:18;;;;;;;34.23;20.03;;;3.40;99.90;;;;;;10344735;28;20210;-84
2022/12/21 05:24:21;;;;;;;46.00;27.67;;;3.60;99.90;;;;;;10358425;28;20278;-84
2022/12/21 05:29:23;;;;;;;51.83;29.80;;;3.50;99.90;;;;;;10377332;28;20208;-85
2022/12/21 05:34:26;;;;;;;55.80;29.53;;;3.50;99.90;;;;;;10359371;28;20616;-85
2022/12/21 05:39:28;;;;;;;46.27;27.17;;;3.50;99.90;;;;;;10377946;28;20238;-85
2022/12/21 05:44:31;;;;;;;52.00;27.83;;;3.50;99.90;;;;;;10377336;28;20220;-84
2022/12/21 05:49:33;;;;;;;45.17;25.93;;;3.50;99.90;;;;;;10359493;28;20231;-84
2022/12/21 05:54:36;;;;;;;43.07;23.67;;;3.50;99.90;;;;;;10360219;28;20208;-86
2022/12/21 05:59:39;;;;;;;49.90;26.57;;;3.50;99.90;;;;;;10377468;28;20309;-85
2022/12/21 06:04:41;;;;;;;45.37;25.40;;;3.50;99.90;;;;;;10361605;28;20495;-84
2022/12/21 06:09:44;;;;;;;29.30;16.40;;;3.50;99.90;;;;;;10360880;28;20197;-84
2022/12/21 06:14:46;;;;;;;44.30;22.47;;;3.70;99.90;;;;;;10345381;28;20235;-84
2022/12/21 06:19:49;;;;;;;49.37;28.10;;;4.80;99.90;;;;;;10345960;28;20330;-85
2022/12/21 06:24:51;;;;;;;54.53;30.87;;;4.30;99.90;;;;;;10363479;28;20201;-84
2022/12/21 06:29:54;;;;;;;41.97;24.40;;;4.10;99.90;;;;;;10363170;28;20233;-84
2022/12/21 06:34:57;;;;;;;43.80;23.93;;;4.00;99.90;;;;;;10424939;28;20198;-84
2022/12/21 06:39:59;;;;;;;57.20;29.23;;;4.00;99.90;;;;;;10427323;28;20207;-84
2022/12/21 06:45:02;;;;;;;54.00;29.63;;;3.90;99.90;;;;;;10416756;28;20181;-84
2022/12/21 06:50:05;;;;;;;57.17;28.43;;;3.80;99.90;;;;;;10444357;28;20208;-84
2022/12/21 06:55:08;;;;;;;50.83;28.60;;;3.70;99.90;;;;;;10416186;28;20526;-84
2022/12/21 07:00:11;;;;;;;48.67;25.40;;;3.70;99.90;;;;;;10369861;28;20240;-83
2022/12/21 07:05:15;;;;;;;51.47;26.50;;;3.60;99.90;;;;;;10386829;28;20185;-83
2022/12/21 07:10:17;;;;;;;53.27;28.00;;;3.60;99.90;;;;;;10399022;28;20227;-84
2022/12/21 07:15:20;;;;;;;69.50;36.40;;;3.50;99.90;;;;;;10409756;28;20185;-86
2022/12/21 07:20:22;;;;;;;66.07;33.83;;;3.50;99.90;;;;;;10425626;28;20216;-84
2022/12/21 07:25:25;;;;;;;57.70;29.23;;;3.50;99.90;;;;;;10420569;28;20181;-83
2022/12/21 07:30:27;;;;;;;59.00;31.70;;;3.60;99.90;;;;;;10406945;28;20231;-84
2022/12/21 07:35:31;;;;;;;48.80;27.77;;;3.60;99.90;;;;;;10422229;28;20227;-81
2022/12/21 07:40:33;;;;;;;46.53;25.13;;;3.70;99.90;;;;;;10416597;28;20227;-84
2022/12/21 07:45:37;;;;;;;32.97;18.33;;;3.80;99.90;;;;;;10396311;28;20224;-85
2022/12/21 07:50:42;;;;;;;41.27;23.03;;;4.30;99.90;;;;;;10388841;28;20204;-85
2022/12/21 07:55:44;;;;;;;37.90;22.67;;;4.50;99.90;;;;;;10392167;28;20235;-84
2022/12/21 08:00:47;;;;;;;38.43;22.30;;;4.20;99.90;;;;;;10390578;28;20301;-85
2022/12/21 08:05:56;;;;;;;43.60;22.97;;;4.10;99.90;;;;;;10385433;28;20204;-85
2022/12/21 08:11:01;;;;;;;49.47;25.03;;;4.00;99.90;;;;;;10394823;28;20235;-86
2022/12/21 08:16:05;;;;;;;52.63;29.63;;;3.90;99.90;;;;;;10380114;28;20282;-86
2022/12/21 08:21:08;;;;;;;56.70;31.17;;;3.90;99.90;;;;;;10391191;28;20212;-85
2022/12/21 08:26:12;;;;;;;52.60;31.53;;;3.80;99.90;;;;;;10379036;28;20227;-86
2022/12/21 08:31:19;;;;;;;46.07;25.17;;;3.90;99.90;;;;;;10385396;28;20682;-86
2022/12/21 08:36:23;;;;;;;43.17;23.90;;;3.80;99.90;;;;;;10394752;28;20748;-85
2022/12/21 08:41:26;;;;;;;44.50;22.40;;;3.90;99.90;;;;;;10381953;28;20258;-85
2022/12/21 08:46:28;;;;;;;42.03;23.80;;;4.00;99.90;;;;;;10375327;28;20204;-84
2022/12/21 08:51:31;;;;;;;48.03;27.83;;;3.90;99.90;;;;;;10381793;28;20270;-85
2022/12/21 08:56:34;;;;;;;45.53;25.60;;;4.00;99.90;;;;;;10364630;28;20208;-85
2022/12/21 09:01:37;;;;;;;40.83;23.70;;;4.00;99.90;;;;;;10356340;28;20232;-85
2022/12/21 09:06:40;;;;;;;36.27;20.33;;;4.10;99.90;;;;;;10350349;28;20196;-85
2022/12/21 09:11:42;;;;;;;41.27;22.90;;;4.20;99.90;;;;;;10366166;28;20207;-85
2022/12/21 09:16:56;;;;;;;39.03;21.60;;;4.20;99.90;;;;;;10374410;28;20208;-84
2022/12/21 09:21:59;;;;;;;39.40;19.67;;;4.20;99.90;;;;;;10371203;28;20220;-85
2022/12/21 09:27:01;;;;;;;38.23;22.93;;;4.30;99.90;;;;;;10370849;28;20204;-84
2022/12/21 09:32:04;;;;;;;37.97;19.97;;;4.30;99.90;;;;;;10349031;28;20991;-85
2022/12/21 09:37:06;;;;;;;29.03;17.43;;;4.40;99.90;;;;;;10378859;28;20346;-84
2022/12/21 09:42:37;;;;;;;39.10;20.63;;;4.40;99.90;;;;;;10366382;28;20263;-84
2022/12/21 09:48:10;;;;;;;42.43;19.93;;;4.80;99.90;;;;;;10380241;28;20267;-83
2022/12/21 09:53:38;;;;;;;44.10;24.57;;;4.70;99.90;;;;;;10384164;28;20259;-84
2022/12/21 09:58:45;;;;;;;41.63;24.03;;;4.60;99.90;;;;;;10369696;28;20298;-85
2022/12/21 10:04:06;;;;;;;41.63;22.37;;;4.90;99.90;;;;;;10372840;28;20227;-84
2022/12/21 10:09:32;;;;;;;44.23;24.77;;;4.80;99.90;;;;;;10377929;28;20204;-84
2022/12/21 10:14:44;;;;;;;39.00;22.73;;;4.80;99.90;;;;;;10366827;28;20282;-85
2022/12/21 10:20:16;;;;;;;25.17;14.97;;;4.80;99.90;;;;;;10362834;28;20216;-84
2022/12/21 10:25:24;;;;;;;26.73;16.10;;;5.20;99.90;;;;;;10345638;28;20225;-84
2022/12/21 10:30:30;;;;;;;34.07;18.93;;;5.70;99.90;;;;;;10338599;28;20283;-85
2022/12/21 10:35:37;;;;;;;31.27;17.23;;;5.90;99.90;;;;;;10364286;28;20205;-85
2022/12/21 10:40:41;;;;;;;43.07;22.07;;;6.60;99.90;;;;;;10360052;28;20196;-85
2022/12/21 10:45:43;;;;;;;52.47;25.33;;;6.50;99.90;;;;;;10361344;28;20197;-84
2022/12/21 10:50:51;;;;;;;42.10;25.87;;;6.10;99.90;;;;;;10348712;28;20204;-84
2022/12/21 10:55:57;;;;;;;38.57;22.73;;;5.90;99.90;;;;;;10374688;28;20206;-84
2022/12/21 11:01:19;;;;;;;48.67;24.83;;;5.90;99.90;;;;;;10329663;28;20232;-87
2022/12/21 11:06:22;;;;;;;39.60;23.97;;;7.20;99.90;;;;;;10293938;28;20210;-87
2022/12/21 11:11:32;;;;;;;37.07;21.20;;;7.40;99.90;;;;;;10290445;28;20225;-87
2022/12/21 11:16:35;;;;;;;41.73;22.13;;;7.30;99.90;;;;;;10289516;28;20217;-87
2022/12/21 11:21:56;;;;;;;41.13;21.73;;;7.20;99.90;;;;;;10290742;28;20295;-87
2022/12/21 11:27:13;;;;;;;42.53;23.43;;;7.00;99.90;;;;;;10289433;28;20222;-87
2022/12/21 11:32:16;;;;;;;39.07;23.20;;;7.20;99.90;;;;;;10288534;28;20265;-87
2022/12/21 11:37:37;;;;;;;45.30;23.47;;;7.30;99.90;;;;;;10288153;28;20280;-87
2022/12/21 11:42:52;;;;;;;40.30;21.80;;;7.50;99.90;;;;;;10287401;28;20261;-87
2022/12/21 11:48:21;;;;;;;46.37;25.43;;;8.10;99.90;;;;;;10287419;28;20210;-87
2022/12/21 11:53:32;;;;;;;42.33;23.23;;;7.70;99.90;;;;;;10286876;28;20280;-87
2022/12/21 11:58:52;;;;;;;45.13;25.10;;;7.20;99.90;;;;;;10345056;28;20255;-87
2022/12/21 12:04:10;;;;;;;41.63;23.60;;;6.90;99.90;;;;;;10358498;28;20256;-87
2022/12/21 12:09:28;;;;;;;38.77;24.40;;;6.60;99.90;;;;;;10373412;28;20676;-87
2022/12/21 12:14:58;;;;;;;45.63;25.50;;;6.50;99.90;;;;;;10350931;28;20247;-87
2022/12/21 12:20:12;;;;;;;46.93;24.77;;;6.20;99.90;;;;;;10350181;28;20233;-87
2022/12/21 12:25:36;;;;;;;46.53;22.80;;;6.30;99.90;;;;;;10350394;28;20259;-87
2022/12/21 12:31:07;;;;;;;46.47;26.63;;;6.40;99.90;;;;;;10351170;28;20287;-87
2022/12/21 12:36:41;;;;;;;46.50;24.60;;;6.20;99.90;;;;;;10348682;28;20254;-94
2022/12/21 12:42:00;;;;;;;53.03;24.60;;;6.10;99.90;;;;;;10340219;28;20720;-89
2022/12/21 12:47:16;;;;;;;51.50;25.03;;;6.10;99.90;;;;;;10338438;28;20237;-88
2022/12/21 12:53:00;;;;;;;58.27;30.23;;;6.80;99.90;;;;;;10374285;28;20286;-88
2022/12/21 12:58:03;;;;;;;53.97;29.00;;;7.10;99.90;;;;;;10369386;28;20271;-88
2022/12/21 13:03:44;;;;;;;52.03;27.30;;;7.30;99.90;;;;;;10349564;28;20258;-89
2022/12/21 13:09:05;;;;;;;44.63;26.00;;;7.20;99.90;;;;;;10360732;28;20822;-89
2022/12/21 13:14:16;;;;;;;58.13;29.30;;;7.30;99.90;;;;;;10362739;28;20795;-89
2022/12/21 13:19:25;;;;;;;51.87;28.83;;;6.90;99.90;;;;;;10363680;28;20229;-89
2022/12/21 13:24:41;;;;;;;53.13;27.27;;;6.50;99.90;;;;;;10383006;28;20288;-89
2022/12/21 13:30:01;;;;;;;47.40;27.47;;;6.40;99.90;;;;;;10383359;28;20919;-89
2022/12/21 13:35:25;;;;;;;40.47;24.40;;;6.40;99.90;;;;;;10393424;28;20234;-89
2022/12/21 13:40:39;;;;;;;49.40;26.00;;;6.30;99.90;;;;;;10380224;28;20237;-89
2022/12/21 13:46:00;;;;;;;45.83;27.13;;;6.30;99.90;;;;;;10382888;28;20255;-89
2022/12/21 13:51:27;;;;;;;46.23;28.70;;;6.00;99.90;;;;;;10354607;28;20236;-89
2022/12/21 13:57:00;;;;;;;44.33;27.33;;;5.70;99.90;;;;;;10357531;28;20298;-89
2022/12/21 14:02:39;;;;;;;50.03;27.33;;;5.40;99.90;;;;;;10366817;28;20374;-89
2022/12/21 14:08:02;;;;;;;46.00;26.17;;;5.30;99.90;;;;;;10373623;28;20660;-89
2022/12/21 14:13:39;;;;;;;50.47;29.03;;;5.20;99.90;;;;;;10364103;28;20236;-88
2022/12/21 14:18:44;;;;;;;69.00;37.53;;;5.10;99.90;;;;;;10351351;28;20285;-89
2022/12/21 14:23:59;;;;;;;54.87;31.63;;;5.00;99.90;;;;;;10371571;28;20290;-89
2022/12/21 14:29:20;;;;;;;53.10;30.20;;;4.90;99.90;;;;;;10350550;28;20673;-89
2022/12/21 14:34:24;;;;;;;52.80;31.53;;;4.90;99.90;;;;;;10364685;28;20284;-89
2022/12/21 14:39:39;;;;;;;62.67;32.77;;;4.80;99.90;;;;;;10350020;28;20282;-89
2022/12/21 14:45:10;;;;;;;70.93;38.63;;;4.90;99.90;;;;;;10352129;28;20263;-89
2022/12/21 14:50:18;;;;;;;54.40;31.03;;;5.10;99.90;;;;;;10369322;28;20232;-89
2022/12/21 14:55:43;;;;;;;54.97;31.47;;;5.10;99.90;;;;;;10351540;28;20241;-89
2022/12/21 15:01:10;;;;;;;37.87;24.43;;;5.00;99.90;;;;;;10370110;28;20264;-89
2022/12/21 15:06:31;;;;;;;51.83;30.30;;;5.40;99.90;;;;;;10352232;28;20312;-89
2022/12/21 15:11:34;;;;;;;46.93;26.97;;;5.50;99.90;;;;;;10352004;28;20255;-88
2022/12/21 15:16:45;;;;;;;39.70;24.60;;;5.90;99.90;;;;;;10347005;28;20270;-88
2022/12/21 15:22:12;;;;;;;52.37;30.40;;;6.10;99.90;;;;;;10346095;28;20309;-91
2022/12/21 15:27:37;;;;;;;55.57;30.87;;;6.10;99.90;;;;;;10342099;28;20211;-91
2022/12/21 15:32:47;;;;;;;56.17;31.37;;;6.00;99.90;;;;;;10352426;28;20236;-91
2022/12/21 15:37:52;;;;;;;42.80;24.80;;;6.50;99.90;;;;;;10368184;28;20260;-94
2022/12/21 15:43:14;;;;;;;64.00;36.93;;;6.40;99.90;;;;;;10368992;28;20243;-91
2022/12/21 15:48:42;;;;;;;76.47;39.47;;;5.60;99.90;;;;;;10351125;28;20231;-91
2022/12/21 15:53:45;;;;;;;79.90;39.03;;;4.90;99.90;;;;;;10348601;28;20220;-90
2022/12/21 15:58:48;;;;;;;52.30;27.53;;;4.90;99.90;;;;;;10354794;28;20325;-90
2022/12/21 16:03:51;;;;;;;62.90;34.10;;;5.00;99.90;;;;;;10367296;28;20260;-90
2022/12/21 16:08:56;;;;;;;57.47;31.27;;;4.90;99.90;;;;;;10368822;28;20228;-90
2022/12/21 16:14:02;;;;;;;62.37;32.87;;;4.80;99.90;;;;;;10366746;28;20759;-90
2022/12/21 16:19:26;;;;;;;67.63;35.70;;;4.80;99.90;;;;;;10367431;28;20239;-89
2022/12/21 16:24:31;;;;;;;51.67;29.80;;;4.90;99.90;;;;;;10369266;28;20268;-90
2022/12/21 16:29:39;;;;;;;59.20;33.83;;;5.00;99.90;;;;;;10368638;28;20662;-89
2022/12/21 16:34:46;;;;;;;60.03;35.07;;;5.10;99.90;;;;;;10348046;28;20342;-90
2022/12/21 16:40:15;;;;;;;60.57;32.93;;;5.10;99.90;;;;;;10367123;28;20294;-90
2022/12/21 16:45:21;;;;;;;56.47;32.50;;;5.20;99.90;;;;;;10003334;28;9999960;-89
2022/12/21 16:50:43;;;;;;;48.73;27.90;;;5.20;99.90;;;;;;10365246;28;20293;-90
2022/12/21 16:55:47;;;;;;;40.90;22.33;;;5.50;99.90;;;;;;10366715;28;20301;-89
2022/12/21 17:00:51;;;;;;;38.63;25.57;;;5.80;99.90;;;;;;10349967;28;20257;-90
2022/12/21 17:05:53;;;;;;;45.50;25.27;;;5.60;99.90;;;;;;10019599;28;10000434;-90
2022/12/21 17:11:18;;;;;;;47.83;27.47;;;5.40;99.90;;;;;;10364668;28;20284;-90
2022/12/21 17:16:37;;;;;;;48.40;26.20;;;5.20;99.90;;;;;;10362641;28;20728;-90
2022/12/21 17:21:40;;;;;;;47.13;26.17;;;5.10;99.90;;;;;;10346891;28;20231;-90
2022/12/21 17:26:45;;;;;;;43.50;25.40;;;5.00;99.90;;;;;;10362848;28;20251;-90
2022/12/21 17:31:47;;;;;;;60.40;30.07;;;5.00;99.90;;;;;;10364393;28;20675;-90
2022/12/21 17:36:50;;;;;;;50.67;28.80;;;5.00;99.90;;;;;;10364912;28;20648;-90
2022/12/21 17:41:52;;;;;;;44.77;25.87;;;5.00;99.90;;;;;;10320172;28;20237;-90
2022/12/21 17:46:55;;;;;;;51.73;29.03;;;5.00;99.90;;;;;;10329798;28;20307;-90
2022/12/21 17:51:58;;;;;;;41.60;26.23;;;5.20;99.90;;;;;;10364889;28;20226;-90
2022/12/21 17:57:04;;;;;;;38.93;21.07;;;5.70;99.90;;;;;;10352347;28;20223;-89
2022/12/21 18:02:15;;;;;;;43.80;25.17;;;6.40;99.90;;;;;;10370401;28;20265;-89
2022/12/21 18:07:18;;;;;;;58.00;29.33;;;6.20;99.90;;;;;;10370857;28;20244;-89
2022/12/21 18:12:21;;;;;;;46.90;27.40;;;5.70;99.90;;;;;;10368982;28;20681;-88
2022/12/21 18:17:23;;;;;;;61.83;33.93;;;5.50;99.90;;;;;;10368711;28;20236;-89
2022/12/21 18:22:26;;;;;;;64.93;37.80;;;5.40;99.90;;;;;;10354383;28;20285;-88
2022/12/21 18:27:28;;;;;;;57.53;33.00;;;5.20;99.90;;;;;;10372047;28;20240;-89
2022/12/21 18:32:31;;;;;;;46.70;31.03;;;5.10;99.90;;;;;;10370221;28;20279;-89
2022/12/21 18:37:33;;;;;;;53.17;29.90;;;5.00;99.90;;;;;;10371961;28;20224;-89
2022/12/21 18:42:36;;;;;;;45.93;28.17;;;4.90;99.90;;;;;;10327899;28;20193;-89
2022/12/21 18:47:39;;;;;;;49.73;28.27;;;4.90;99.90;;;;;;10352708;28;20258;-88
2022/12/21 18:52:43;;;;;;;46.73;28.47;;;4.70;99.90;;;;;;10371620;28;20705;-90
2022/12/21 18:57:47;;;;;;;43.83;26.27;;;4.70;99.90;;;;;;10012054;28;9999766;-88
2022/12/21 19:02:53;;;;;;;44.07;26.63;;;4.60;99.90;;;;;;10365939;28;20906;-87
2022/12/21 19:07:56;;;;;;;46.90;28.50;;;4.70;99.90;;;;;;10356423;28;20260;-88
2022/12/21 19:13:00;;;;;;;51.83;30.17;;;4.60;99.90;;;;;;10349226;28;20267;-88
2022/12/21 19:18:03;;;;;;;49.80;29.03;;;4.60;99.90;;;;;;10368095;28;20763;-88
2022/12/21 19:23:12;;;;;;;53.87;28.73;;;4.60;99.90;;;;;;10367263;28;20248;-87
2022/12/21 19:28:18;;;;;;;44.80;27.60;;;4.60;99.90;;;;;;10366384;28;20818;-88
2022/12/21 19:33:21;;;;;;;51.43;29.33;;;4.50;99.90;;;;;;10364877;28;20244;-87
2022/12/21 19:38:25;;;;;;;53.57;28.60;;;4.50;99.90;;;;;;10365333;28;20235;-87
2022/12/21 19:43:28;;;;;;;46.83;28.33;;;4.40;99.90;;;;;;10352775;28;20243;-86
2022/12/21 19:48:34;;;;;;;51.00;27.20;;;4.40;99.90;;;;;;10363804;28;20677;-87
2022/12/21 19:53:37;;;;;;;57.63;30.70;;;4.40;99.90;;;;;;10363310;28;20240;-87
2022/12/21 19:58:55;;;;;;;50.97;29.47;;;4.50;99.90;;;;;;10349228;28;20334;-87
2022/12/21 20:04:00;;;;;;;63.47;34.83;;;4.50;99.90;;;;;;10365388;28;20240;-87
2022/12/21 20:09:30;;;;;;;59.70;34.23;;;4.50;99.90;;;;;;10360636;28;20231;-87
2022/12/21 20:14:40;;;;;;;58.57;36.17;;;4.70;99.90;;;;;;10362682;28;20244;-87
2022/12/21 20:19:43;;;;;;;58.47;35.60;;;4.70;99.90;;;;;;10385763;28;20285;-88
2022/12/21 20:24:47;;;;;;;59.07;32.03;;;4.70;99.90;;;;;;10380111;28;20704;-88
2022/12/21 20:29:53;;;;;;;75.33;40.97;;;4.70;99.90;;;;;;10364158;28;20290;-88
2022/12/21 20:34:56;;;;;;;66.10;36.00;;;4.30;99.90;;;;;;10369995;28;20302;-94
2022/12/21 20:39:59;;;;;;;56.73;30.60;;;4.30;99.90;;;;;;10355915;28;20204;-95
2022/12/21 20:45:02;;;;;;;60.67;34.87;;;4.40;99.90;;;;;;10368777;28;20343;-89
2022/12/21 20:50:13;;;;;;;63.43;36.80;;;4.40;99.90;;;;;;10369047;28;20712;-90
2022/12/21 21:00:41;;;;;;;64.20;35.67;;;4.30;99.90;;;;;;10343726;28;20236;-90
2022/12/21 21:05:43;;;;;;;62.63;35.70;;;4.20;99.90;;;;;;10365495;28;20791;-90
2022/12/21 21:11:50;;;;;;;56.33;31.93;;;4.20;99.90;;;;;;10374134;28;20598;-92
2022/12/21 21:16:12;;;;;;;66.40;38.63;;;4.20;99.90;;;;;;10389365;28;20199;-89
2022/12/21 21:26:38;;;;;;;62.07;37.00;;;4.20;99.90;;;;;;10368154;28;20329;-85
2022/12/21 21:31:40;;;;;;;67.17;40.10;;;4.20;99.90;;;;;;10387942;28;20227;-85
2022/12/21 21:36:46;;;;;;;65.53;38.63;;;4.20;99.90;;;;;;10362845;28;20861;-86
2022/12/21 21:41:50;;;;;;;68.20;40.10;;;4.10;99.90;;;;;;10361907;28;20301;-87
2022/12/21 21:46:53;;;;;;;70.63;42.03;;;4.10;99.90;;;;;;10372906;28;20248;-87
2022/12/21 21:51:57;;;;;;;72.93;41.97;;;4.10;99.90;;;;;;10365895;28;20196;-86
2022/12/21 21:56:59;;;;;;;75.43;42.73;;;4.10;99.90;;;;;;10340878;28;20635;-87
2022/12/21 22:02:25;;;;;;;75.10;42.07;;;4.10;99.90;;;;;;10356907;28;20235;-89
2022/12/21 22:07:28;;;;;;;73.20;41.60;;;4.20;99.90;;;;;;10354287;28;20235;-87
2022/12/21 22:12:31;;;;;;;68.93;40.10;;;4.30;99.90;;;;;;10351036;28;20265;-87
2022/12/21 22:17:34;;;;;;;59.27;36.50;;;4.20;99.90;;;;;;10349824;28;20239;-86
2022/12/21 22:33:18;;;;;;;63.17;36.57;;;4.10;99.90;;;;;;10356015;28;20262;-86
2022/12/21 22:43:43;;;;;;;58.10;35.67;;;4.00;99.90;;;;;;10355906;28;20942;-86
2022/12/21 22:48:45;;;;;;;60.33;34.73;;;3.90;99.90;;;;;;10351673;28;20231;-86
2022/12/21 22:53:52;;;;;;;57.17;34.63;;;4.00;99.90;;;;;;10356588;28;20196;-86
2022/12/21 22:59:02;;;;;;;67.90;35.47;;;4.00;99.90;;;;;;10357542;28;20604;-87
2022/12/21 23:04:23;;;;;;;59.00;35.23;;;4.00;99.90;;;;;;10356837;28;20316;-86
2022/12/21 23:09:26;;;;;;;60.17;36.20;;;4.00;99.90;;;;;;10334802;28;20592;-85
2022/12/21 23:14:47;;;;;;;51.50;32.33;;;4.10;99.90;;;;;;10373733;28;20215;-87
2022/12/21 23:19:50;;;;;;;59.33;34.20;;;4.10;99.90;;;;;;10357264;28;20266;-86
2022/12/21 23:43:10;;;;;;;61.90;34.43;;;4.10;99.90;;;;;;10368964;28;20208;-86
